Time;durP1;ratioP1;P1;durP2;ratioP2;P2;SDS_P1;SDS_P2;PMS_P1;PMS_P2;Temp;Humidity;BMP_temperature;BMP_pressure;BME280_temperature;BME280_humidity;BME280_pressure;Samples;Min_cycle;Max_cycle;Signal;HPM_P1;HPM_P2
2022/05/06 00:00:28;;;;;;;;;;;;;;;20.63;46.59;101875.31;5100196;27;5307;-71
2022/05/06 00:02:55;;;;;;;;;;;;;;;20.62;46.68;101882.44;5099480;28;5670;-71
2022/05/06 00:05:21;;;;;;;;;;;;;;;20.62;46.42;101877.44;5095351;27;4208;-72
2022/05/06 00:07:48;;;;;;;;;;;;;;;20.62;46.62;101882.44;5100110;28;4165;-71
2022/05/06 00:10:15;;;;;;;;;;;;;;;20.62;46.44;101877.44;5099022;28;5238;-72
2022/05/06 00:12:42;;;;;;;;;;;;;;;20.59;46.54;101881.56;5100445;28;5355;-71
2022/05/06 00:15:09;;;;;;;;;;;;;;;20.60;46.48;101870.81;5099791;28;5232;-71
2022/05/06 00:17:35;;;;;;;;;;;;;;;20.60;46.46;101882.31;5096459;27;4190;-71
2022/05/06 00:20:02;;;;;;;;;;;;;;;20.60;46.31;101879.44;5099171;27;4211;-71
2022/05/06 00:22:28;;;;;;;;;;;;;;;20.59;46.44;101880.81;5098667;27;4218;-71
2022/05/06 00:24:56;;;;;;;;;;;;;;;20.59;46.54;101893.09;5098841;28;4217;-72
2022/05/06 00:27:22;;;;;;;;;;;;;;;20.56;46.45;101893.53;5098438;27;4381;-72
2022/05/06 00:29:48;;;;;;;;;;;;;;;20.57;46.44;101889.31;5097516;27;4135;-71
2022/05/06 00:32:15;;;;;;;;;;;;;;;20.57;46.58;101889.31;5095741;28;4191;-71
2022/05/06 00:34:41;;;;;;;;;;;;;;;20.57;46.36;101895.06;5094052;28;4915;-71
2022/05/06 00:37:07;;;;;;;;;;;;;;;20.51;46.43;101887.53;5096623;28;5264;-71
2022/05/06 00:39:34;;;;;;;;;;;;;;;20.55;46.40;101892.03;5098865;28;4511;-71
2022/05/06 00:42:00;;;;;;;;;;;;;;;20.55;46.34;101886.28;5096365;27;4044;-71
2022/05/06 00:44:27;;;;;;;;;;;;;;;20.50;46.45;101888.91;5094515;27;4149;-72
2022/05/06 00:46:53;;;;;;;;;;;;;;;20.48;46.30;101883.03;5094744;28;4143;-71
2022/05/06 00:49:19;;;;;;;;;;;;;;;20.49;46.36;101883.78;5100093;28;4178;-72
2022/05/06 00:51:46;;;;;;;;;;;;;;;20.48;46.33;101888.78;5103035;28;4149;-72
2022/05/06 00:54:13;;;;;;;;;;;;;;;20.48;46.45;101893.81;5099216;28;4228;-72
2022/05/06 00:56:39;;;;;;;;;;;;;;;20.47;46.28;101890.16;5098647;28;4240;-72
2022/05/06 00:59:05;;;;;;;;;;;;;;;20.48;46.35;101888.78;5098781;28;4119;-72
2022/05/06 01:01:32;;;;;;;;;;;;;;;20.49;46.37;101896.03;5078695;28;4169;-72
2022/05/06 01:03:58;;;;;;;;;;;;;;;20.49;46.36;101895.28;5096572;28;4194;-73
2022/05/06 01:06:25;;;;;;;;;;;;;;;20.48;46.34;101885.91;5094821;28;5439;-72
2022/05/06 01:08:52;;;;;;;;;;;;;;;20.48;46.44;101891.66;5085009;28;4223;-72
2022/05/06 01:11:19;;;;;;;;;;;;;;;20.48;46.29;101888.78;5095556;28;4232;-72
2022/05/06 01:13:46;;;;;;;;;;;;;;;20.48;46.32;101894.56;5100443;27;4295;-72
2022/05/06 01:16:19;;;;;;;;;;;;;;;20.48;46.22;101900.31;5098706;27;4929;-72
2022/05/06 01:18:54;;;;;;;;;;;;;;;20.47;46.31;101895.91;5093284;27;4155;-72
2022/05/06 01:21:24;;;;;;;;;;;;;;;20.48;46.31;101893.81;5095059;28;4162;-72
2022/05/06 01:23:50;;;;;;;;;;;;;;;20.47;46.30;101893.03;5095263;28;5582;-72
2022/05/06 01:26:17;;;;;;;;;;;;;;;20.46;46.23;101894.41;5099013;28;5373;-72
2022/05/06 01:28:43;;;;;;;;;;;;;;;20.45;46.28;101895.78;5091728;28;4141;-72
2022/05/06 01:31:09;;;;;;;;;;;;;;;20.47;46.22;101900.91;5090213;28;4123;-72
2022/05/06 01:33:36;;;;;;;;;;;;;;;20.45;46.23;101898.66;5097388;27;4157;-71
2022/05/06 01:36:06;;;;;;;;;;;;;;;20.45;46.17;101901.53;5084107;28;5198;-71
2022/05/06 01:38:34;;;;;;;;;;;;;;;20.44;46.27;101900.03;5097204;28;4031;-72
2022/05/06 01:41:10;;;;;;;;;;;;;;;20.45;46.17;101900.78;5095776;27;4054;-72
2022/05/06 01:43:45;;;;;;;;;;;;;;;20.43;46.06;101904.31;5095091;28;4196;-72
2022/05/06 01:46:13;;;;;;;;;;;;;;;20.42;46.24;101902.78;5094779;28;5529;-72
2022/05/06 01:48:44;;;;;;;;;;;;;;;20.42;46.01;101891.28;5094683;28;4204;-72
2022/05/06 01:51:13;;;;;;;;;;;;;;;20.42;46.07;101908.53;5090147;28;4196;-72
2022/05/06 01:53:40;;;;;;;;;;;;;;;20.42;46.07;101905.66;5095153;28;4200;-71
2022/05/06 01:56:07;;;;;;;;;;;;;;;20.42;46.17;101907.81;5094317;28;4563;-71
2022/05/06 01:58:38;;;;;;;;;;;;;;;20.41;46.20;101895.53;5100457;28;4056;-72
2022/05/06 02:01:06;;;;;;;;;;;;;;;20.41;46.12;101901.31;5099158;27;5181;-71
2022/05/06 02:06:23;;;;;;;;;;;;;;;20.40;46.11;101904.78;5112067;27;4173;-72
2022/05/06 02:08:59;;;;;;;;;;;;;;;20.39;46.04;101898.28;5102049;28;4221;-72
2022/05/06 02:11:34;;;;;;;;;;;;;;;20.39;46.09;101900.44;5095996;28;4152;-72
2022/05/06 02:14:00;;;;;;;;;;;;;;;20.38;45.99;101899.66;5093828;28;5549;-72
2022/05/06 02:16:38;;;;;;;;;;;;;;;20.38;46.05;101902.53;5093060;28;6616;-72
2022/05/06 02:19:24;;;;;;;;;;;;;;;20.37;46.10;101901.03;5093049;28;5281;-72
2022/05/06 02:22:11;;;;;;;;;;;;;;;20.37;46.06;101901.03;5090742;28;5260;-72
2022/05/06 02:24:57;;;;;;;;;;;;;;;20.34;45.97;101899.41;5095657;28;4181;-72
2022/05/06 02:27:42;;;;;;;;;;;;;;;20.35;46.07;101903.78;5093768;28;6114;-72
2022/05/06 02:33:23;;;;;;;;;;;;;;;20.34;46.07;101892.91;5109677;27;4120;-72
2022/05/06 02:36:08;;;;;;;;;;;;;;;20.34;46.03;101896.53;5091875;28;5200;-72
2022/05/06 02:38:36;;;;;;;;;;;;;;;20.33;45.95;101892.16;5100603;28;4199;-72
2022/05/06 02:41:02;;;;;;;;;;;;;;;20.32;46.00;101893.53;5094295;28;4350;-72
2022/05/06 02:43:40;;;;;;;;;;;;;;;20.32;46.02;101899.28;5102807;27;5417;-72
2022/05/06 02:46:07;;;;;;;;;;;;;;;20.32;45.90;101893.53;5091789;28;4241;-72
2022/05/06 02:48:34;;;;;;;;;;;;;;;20.34;46.02;101890.78;5094216;28;4207;-72
2022/05/06 02:51:00;;;;;;;;;;;;;;;20.37;45.96;101903.91;5094719;28;4020;-71
2022/05/06 02:53:31;;;;;;;;;;;;;;;20.40;45.82;101899.78;5096486;28;6756;-72
2022/05/06 02:55:59;;;;;;;;;;;;;;;20.42;45.74;101897.03;5096941;28;4220;-72
2022/05/06 02:58:28;;;;;;;;;;;;;;;20.43;45.68;101892.81;5098649;28;4223;-71
2022/05/06 03:00:54;;;;;;;;;;;;;;;20.46;45.75;101891.53;5097079;28;4418;-72
2022/05/06 03:03:21;;;;;;;;;;;;;;;20.48;45.65;101888.78;5094161;28;5277;-71
2022/05/06 03:05:47;;;;;;;;;;;;;;;20.50;45.69;101891.81;5093704;28;4194;-72
2022/05/06 03:08:17;;;;;;;;;;;;;;;20.50;45.77;101896.78;5093879;28;5526;-71
2022/05/06 03:10:44;;;;;;;;;;;;;;;20.49;45.72;101896.03;5096097;28;4208;-71
2022/05/06 03:13:12;;;;;;;;;;;;;;;20.49;45.84;101889.53;5096604;28;4387;-72
2022/05/06 03:15:43;;;;;;;;;;;;;;;20.48;45.90;101894.56;5094753;28;4237;-71
2022/05/06 03:18:13;;;;;;;;;;;;;;;20.48;45.86;101894.56;5092522;28;5112;-72
2022/05/06 03:20:40;;;;;;;;;;;;;;;20.48;45.87;101900.31;5095056;28;4133;-71
2022/05/06 03:23:06;;;;;;;;;;;;;;;20.49;45.82;101901.78;5093638;28;4128;-72
2022/05/06 03:25:33;;;;;;;;;;;;;;;20.49;45.85;101904.66;5112501;28;5290;-72
2022/05/06 03:28:01;;;;;;;;;;;;;;;20.50;45.81;101909.06;5094830;28;4192;-71
2022/05/06 03:30:29;;;;;;;;;;;;;;;20.53;46.05;101906.31;5100425;28;5918;-71
2022/05/06 03:33:08;;;;;;;;;;;;;;;20.55;46.04;101901.44;5091851;28;5340;-71
2022/05/06 03:35:36;;;;;;;;;;;;;;;20.57;46.10;101913.09;5110995;28;4327;-72
2022/05/06 03:38:03;;;;;;;;;;;;;;;20.59;46.08;101909.59;5095122;28;5231;-71
2022/05/06 03:40:30;;;;;;;;;;;;;;;20.58;46.11;101911.72;5094103;28;5285;-72
2022/05/06 03:43:00;;;;;;;;;;;;;;;20.57;46.16;101915.22;5094431;28;4197;-71
2022/05/06 03:45:26;;;;;;;;;;;;;;;20.56;46.08;101910.81;5100350;28;4145;-72
2022/05/06 03:47:54;;;;;;;;;;;;;;;20.56;46.16;101913.69;5102652;27;4193;-73
2022/05/06 03:53:06;;;;;;;;;;;;;;;20.57;46.26;101918.09;5098704;27;4184;-72
2022/05/06 03:55:35;;;;;;;;;;;;;;;20.58;46.26;101922.47;5102771;28;4108;-72
2022/05/06 03:58:01;;;;;;;;;;;;;;;20.60;46.23;101916.84;5102535;28;4103;-72
2022/05/06 04:00:29;;;;;;;;;;;;;;;20.60;46.31;101917.59;5098759;28;5264;-71
2022/05/06 04:03:02;;;;;;;;;;;;;;;20.62;46.36;101920.59;5088662;28;4209;-71
2022/05/06 04:05:33;;;;;;;;;;;;;;;20.62;46.34;101919.88;5096698;27;4251;-71
2022/05/06 04:08:01;;;;;;;;;;;;;;;20.61;46.28;101924.84;5116396;27;4117;-71
2022/05/06 04:10:29;;;;;;;;;;;;;;;20.61;46.39;101932.72;5099595;28;6485;-72
2022/05/06 04:12:57;;;;;;;;;;;;;;;20.60;46.37;101934.13;5100203;27;4279;-72
2022/05/06 04:15:23;;;;;;;;;;;;;;;19.70;43.93;101943.47;5099594;27;4253;-71
2022/05/06 04:17:52;;;;;;;;;;;;;;;19.20;43.90;101941.53;5096782;28;5227;-71
2022/05/06 04:25:51;;;;;;;;;;;;;;;20.37;44.02;101952.81;5098639;28;4227;-72
2022/05/06 04:28:19;;;;;;;;;;;;;;;20.43;44.23;101946.69;5104360;28;5640;-72
2022/05/06 04:30:53;;;;;;;;;;;;;;;20.48;44.50;101949.22;5097369;28;5598;-72
2022/05/06 04:33:19;;;;;;;;;;;;;;;20.50;44.83;101949.34;5094371;27;4176;-72
2022/05/06 04:35:48;;;;;;;;;;;;;;;20.53;44.98;101958.13;5097133;27;4257;-74
2022/05/06 04:38:18;;;;;;;;;;;;;;;20.61;45.36;101958.63;5094468;27;4168;-66
2022/05/06 04:40:45;;;;;;;;;;;;;;;20.64;45.32;101963.16;5095811;28;4143;-70
2022/05/06 04:43:12;;;;;;;;;;;;;;;20.67;45.79;101961.91;5090759;27;4131;-75
2022/05/06 04:45:42;;;;;;;;;;;;;;;20.02;43.97;101958.47;5098590;27;4017;-77
2022/05/06 04:48:11;;;;;;;;;;;;;;;19.44;44.82;101971.16;5108302;28;4200;-78
2022/05/06 04:50:39;;;;;;;;;;;;;;;19.89;44.27;101962.69;5104836;28;4216;-78
2022/05/06 04:53:08;;;;;;;;;;;;;;;20.20;44.13;101976.16;5123938;27;4171;-76
2022/05/06 04:55:38;;;;;;;;;;;;;;;20.35;44.47;101967.06;5117495;27;4218;-77
2022/05/06 04:58:05;;;;;;;;;;;;;;;20.45;44.73;101970.59;5095832;28;4214;-78
2022/05/06 05:00:33;;;;;;;;;;;;;;;20.47;44.66;101990.84;5118945;27;4206;-77
2022/05/06 05:02:59;;;;;;;;;;;;;;;20.49;44.81;101975.84;5094405;28;4356;-77
2022/05/06 05:05:27;;;;;;;;;;;;;;;20.50;44.80;101978.13;5106216;28;4072;-77
2022/05/06 05:07:54;;;;;;;;;;;;;;;20.50;44.92;101978.13;5096127;28;4193;-74
2022/05/06 05:10:21;;;;;;;;;;;;;;;20.54;44.97;101985.50;5095698;28;5225;-72
2022/05/06 05:12:48;;;;;;;;;;;;;;;20.52;45.12;101983.25;5100729;28;4217;-73
2022/05/06 05:15:16;;;;;;;;;;;;;;;20.51;45.33;101991.13;5103464;27;5417;-72
2022/05/06 05:17:43;;;;;;;;;;;;;;;20.50;45.22;101989.63;5094641;28;5275;-75
2022/05/06 05:20:10;;;;;;;;;;;;;;;20.51;45.24;101982.50;5096426;28;4152;-75
2022/05/06 05:22:38;;;;;;;;;;;;;;;20.53;45.40;101998.41;5097504;28;4180;-75
2022/05/06 05:25:08;;;;;;;;;;;;;;;20.55;45.34;101989.88;5100259;28;5301;-75
2022/05/06 05:27:38;;;;;;;;;;;;;;;20.55;45.49;101992.75;5096241;28;4203;-74
2022/05/06 05:30:07;;;;;;;;;;;;;;;20.57;45.62;101992.91;5096963;27;5225;-73
2022/05/06 05:32:34;;;;;;;;;;;;;;;20.59;45.78;101984.41;5101017;27;4193;-76
2022/05/06 05:35:02;;;;;;;;;;;;;;;20.60;45.81;101994.56;5100416;27;4468;-75
2022/05/06 05:37:32;;;;;;;;;;;;;;;20.60;45.93;101988.81;5100433;27;4230;-76
2022/05/06 05:40:01;;;;;;;;;;;;;;;20.61;45.91;101988.16;5101640;27;5208;-76
2022/05/06 05:42:30;;;;;;;;;;;;;;;20.62;45.98;102000.44;5104754;27;4362;-76
2022/05/06 05:48:19;;;;;;;;;;;;;;;20.59;46.15;101995.91;5025156;28;4161;-75
2022/05/06 05:50:49;;;;;;;;;;;;;;;20.62;46.17;101989.69;5092031;27;4300;-70
2022/05/06 05:53:21;;;;;;;;;;;;;;;20.61;46.32;101998.94;5081093;27;5239;-74
2022/05/06 05:55:49;;;;;;;;;;;;;;;20.56;47.07;101997.91;5113251;27;4114;-74
2022/05/06 05:58:18;;;;;;;;;;;;;;;18.49;45.52;102000.41;5104433;27;4213;-62
2022/05/06 06:00:48;;;;;;;;;;;;;;;17.44;47.16;102004.13;5098179;27;4236;-62
2022/05/06 06:03:15;;;;;;;;;;;;;;;17.29;47.11;102001.53;5098441;27;4161;-61
2022/05/06 06:05:44;;;;;;;;;;;;;;;17.16;47.38;102002.72;5114074;27;4143;-62
2022/05/06 06:08:11;;;;;;;;;;;;;;;17.03;47.24;101998.13;5097778;27;4105;-62
2022/05/06 06:10:39;;;;;;;;;;;;;;;16.97;47.57;101997.66;5106525;28;5230;-62
2022/05/06 06:13:08;;;;;;;;;;;;;;;17.00;47.11;101996.47;5097991;27;4167;-63
2022/05/06 06:15:40;;;;;;;;;;;;;;;16.86;47.49;102003.94;5105023;28;4199;-62
2022/05/06 06:18:07;;;;;;;;;;;;;;;16.92;47.17;102013.00;5116652;27;4135;-62
2022/05/06 06:20:33;;;;;;;;;;;;;;;16.81;47.70;102010.69;5098811;28;4137;-62
2022/05/06 06:23:00;;;;;;;;;;;;;;;16.90;47.61;102010.72;5115458;27;5275;-62
2022/05/06 06:25:27;;;;;;;;;;;;;;;17.02;47.56;102016.66;5104551;27;4194;-62
2022/05/06 06:27:56;;;;;;;;;;;;;;;17.08;47.55;102020.00;5115283;27;6587;-62
2022/05/06 06:30:23;;;;;;;;;;;;;;;17.09;47.42;102021.53;5099419;27;4167;-62
2022/05/06 06:32:53;;;;;;;;;;;;;;;17.01;46.97;102018.00;5115542;27;4207;-62
2022/05/06 06:35:22;;;;;;;;;;;;;;;16.96;47.20;102013.31;5099960;28;4145;-62
2022/05/06 06:37:52;;;;;;;;;;;;;;;16.94;47.40;102011.06;5096385;27;4158;-63
2022/05/06 06:40:21;;;;;;;;;;;;;;;17.12;46.98;102017.44;5105882;28;4206;-62
2022/05/06 06:42:48;;;;;;;;;;;;;;;17.26;47.03;102023.53;5104196;27;5284;-62
2022/05/06 06:45:25;;;;;;;;;;;;;;;17.22;46.72;102022.47;5096234;28;4093;-68
2022/05/06 06:47:57;;;;;;;;;;;;;;;18.11;45.39;102019.16;5113822;28;5292;-65
2022/05/06 06:50:36;;;;;;;;;;;;;;;18.88;44.13;102026.16;5100131;28;4187;-65
2022/05/06 06:53:21;;;;;;;;;;;;;;;19.27;43.75;102023.88;5116736;28;4159;-65
2022/05/06 06:55:47;;;;;;;;;;;;;;;19.39;43.68;102018.22;5116531;28;4226;-70
2022/05/06 06:58:14;;;;;;;;;;;;;;;18.54;44.36;102022.28;5115778;28;4158;-72
2022/05/06 07:00:42;;;;;;;;;;;;;;;18.13;44.98;102022.19;5117764;28;4223;-74
2022/05/06 07:03:09;;;;;;;;;;;;;;;18.12;44.98;102021.44;5117150;28;4212;-65
2022/05/06 07:05:36;;;;;;;;;;;;;;;18.58;44.65;102022.59;5098468;28;5277;-65
2022/05/06 07:13:44;;;;;;;;;;;;;;;19.50;43.46;102034.78;5115030;28;4139;-66
2022/05/06 07:16:11;;;;;;;;;;;;;;;19.55;43.55;102027.94;5114540;28;4529;-65
2022/05/06 07:18:37;;;;;;;;;;;;;;;19.59;43.63;102033.97;5117445;27;4286;-65
2022/05/06 07:21:03;;;;;;;;;;;;;;;19.63;43.69;102034.25;5119583;27;4112;-65
2022/05/06 07:23:30;;;;;;;;;;;;;;;19.67;43.67;102039.50;5120236;27;5460;-66
2022/05/06 07:25:56;;;;;;;;;;;;;;;19.70;43.85;102037.53;5120190;27;5297;-65
2022/05/06 07:28:23;;;;;;;;;;;;;;;19.72;43.75;102040.56;5120043;27;5380;-66
2022/05/06 07:30:49;;;;;;;;;;;;;;;19.74;43.72;102041.44;5120314;27;4278;-65
2022/05/06 07:33:16;;;;;;;;;;;;;;;19.77;43.80;102048.06;5119386;27;4685;-66
2022/05/06 07:35:42;;;;;;;;;;;;;;;19.79;43.78;102046.13;5119921;27;4261;-66
2022/05/06 07:38:09;;;;;;;;;;;;;;;19.82;43.91;102044.88;5120644;27;6178;-66
2022/05/06 07:40:35;;;;;;;;;;;;;;;19.84;43.89;102042.16;5119521;27;4363;-65
2022/05/06 07:43:02;;;;;;;;;;;;;;;19.86;43.92;102045.16;5121542;27;4181;-65
2022/05/06 07:45:29;;;;;;;;;;;;;;;19.88;43.99;102048.16;5117702;27;4148;-65
2022/05/06 07:47:55;;;;;;;;;;;;;;;19.91;43.99;102043.31;5119788;27;4155;-65
2022/05/06 07:50:30;;;;;;;;;;;;;;;19.92;43.98;102047.69;5118588;27;4272;-65
2022/05/06 07:52:56;;;;;;;;;;;;;;;19.94;44.09;102050.69;5120192;27;4245;-65
2022/05/06 07:55:23;;;;;;;;;;;;;;;19.96;44.06;102053.69;5119885;27;4245;-66
2022/05/06 07:57:49;;;;;;;;;;;;;;;19.96;44.09;102041.47;5108301;27;4058;-66
2022/05/06 08:00:19;;;;;;;;;;;;;;;19.99;44.09;102040.22;5119038;27;4141;-66
2022/05/06 08:05:32;;;;;;;;;;;;;;;20.02;44.06;102051.25;5118363;27;4108;-65
2022/05/06 08:07:58;;;;;;;;;;;;;;;20.04;44.21;102051.38;5118955;27;4122;-65
2022/05/06 08:10:25;;;;;;;;;;;;;;;20.04;44.13;102048.50;5119254;27;4243;-65
2022/05/06 08:12:51;;;;;;;;;;;;;;;20.05;44.14;102047.13;5120119;27;4211;-66
2022/05/06 08:15:17;;;;;;;;;;;;;;;20.06;44.25;102045.75;5120089;27;4160;-66
2022/05/06 08:17:44;;;;;;;;;;;;;;;20.07;44.29;102047.25;5118586;27;4212;-65
2022/05/06 08:20:10;;;;;;;;;;;;;;;20.08;44.29;102043.00;5119032;27;4204;-66
2022/05/06 08:22:37;;;;;;;;;;;;;;;20.10;44.27;102033.75;5119302;27;4275;-65
2022/05/06 08:25:04;;;;;;;;;;;;;;;20.13;44.22;102031.78;5119294;27;4304;-66
2022/05/06 08:27:51;;;;;;;;;;;;;;;20.13;44.21;102041.16;5119201;27;4139;-65
2022/05/06 08:30:18;;;;;;;;;;;;;;;20.15;44.29;102040.53;5118304;27;4912;-66
2022/05/06 08:32:44;;;;;;;;;;;;;;;20.16;44.40;102045.69;5119282;27;5213;-66
2022/05/06 08:35:12;;;;;;;;;;;;;;;20.16;44.44;102031.31;5119378;27;4048;-66
2022/05/06 08:37:45;;;;;;;;;;;;;;;20.19;44.39;102040.81;5119184;27;4212;-66
2022/05/06 08:40:18;;;;;;;;;;;;;;;20.18;44.44;102045.81;5118665;27;4205;-65
2022/05/06 08:42:44;;;;;;;;;;;;;;;20.19;44.38;102040.81;5118723;27;4226;-66
2022/05/06 08:50:52;;;;;;;;;;;;;;;20.20;44.53;102042.31;5108345;27;5394;-65
2022/05/06 08:53:19;;;;;;;;;;;;;;;20.21;44.51;102043.81;5107479;27;4174;-64
2022/05/06 08:55:47;;;;;;;;;;;;;;;20.20;44.60;102037.31;5118051;27;4197;-65
2022/05/06 08:58:13;;;;;;;;;;;;;;;20.23;44.77;102041.09;5119329;27;4122;-64
2022/05/06 09:00:40;;;;;;;;;;;;;;;20.24;44.96;102031.81;5118615;27;5253;-64
2022/05/06 09:03:07;;;;;;;;;;;;;;;20.27;45.20;102035.56;5119711;27;5094;-64
2022/05/06 09:05:33;;;;;;;;;;;;;;;20.26;45.37;102034.81;5119300;27;4396;-64
2022/05/06 09:08:02;;;;;;;;;;;;;;;20.27;45.36;102035.56;5107129;27;4164;-64
2022/05/06 09:10:29;;;;;;;;;;;;;;;20.27;45.50;102029.81;5118420;27;4042;-64
2022/05/06 09:12:56;;;;;;;;;;;;;;;20.28;45.50;102037.09;5117746;27;4182;-63
2022/05/06 09:18:08;;;;;;;;;;;;;;;20.29;45.79;102027.09;5118023;27;4534;-63
2022/05/06 09:20:40;;;;;;;;;;;;;;;20.32;45.70;102025.09;5120343;27;4502;-63
2022/05/06 09:23:18;;;;;;;;;;;;;;;20.29;45.83;102033.59;5119375;27;4132;-64
2022/05/06 09:25:46;;;;;;;;;;;;;;;20.31;45.77;102038.72;5098780;27;4233;-64
2022/05/06 09:28:27;;;;;;;;;;;;;;;20.32;46.04;102025.84;5118477;27;4179;-65
2022/05/06 09:31:01;;;;;;;;;;;;;;;20.32;45.97;102019.34;5117536;27;4185;-64
2022/05/06 09:33:28;;;;;;;;;;;;;;;20.31;46.08;102021.47;5118383;27;4362;-65
2022/05/06 09:35:56;;;;;;;;;;;;;;;20.32;46.03;102020.09;5118495;27;4053;-65
2022/05/06 09:38:24;;;;;;;;;;;;;;;20.32;45.96;102022.22;5116212;27;4181;-64
2022/05/06 09:40:51;;;;;;;;;;;;;;;20.34;46.01;102023.13;5118165;27;5309;-64
2022/05/06 09:43:18;;;;;;;;;;;;;;;20.35;46.00;102023.88;5119086;27;4209;-64
2022/05/06 09:45:44;;;;;;;;;;;;;;;20.34;45.85;102023.13;5116507;27;4215;-64
2022/05/06 09:48:11;;;;;;;;;;;;;;;20.34;45.96;102028.88;5117675;27;4225;-64
2022/05/06 09:50:38;;;;;;;;;;;;;;;20.35;45.99;102024.59;5117730;27;4289;-64
2022/05/06 09:53:06;;;;;;;;;;;;;;;20.36;45.97;102020.34;5115230;27;5559;-64
2022/05/06 09:55:32;;;;;;;;;;;;;;;20.36;46.09;102014.59;5119420;27;5279;-64
2022/05/06 09:57:59;;;;;;;;;;;;;;;20.35;46.03;102015.22;5117665;27;4182;-64
2022/05/06 10:00:28;;;;;;;;;;;;;;;20.39;45.95;102024.88;5116386;27;5321;-65
2022/05/06 10:02:55;;;;;;;;;;;;;;;20.41;46.01;102016.38;5097376;27;4393;-64
2022/05/06 10:05:22;;;;;;;;;;;;;;;20.43;46.06;102010.75;5115056;27;4422;-64
2022/05/06 10:07:49;;;;;;;;;;;;;;;20.43;45.97;102010.00;5117370;27;4890;-64
2022/05/06 10:10:16;;;;;;;;;;;;;;;20.43;46.13;102007.88;5116261;27;5432;-63
2022/05/06 10:12:44;;;;;;;;;;;;;;;20.43;46.16;102002.13;5116836;27;4167;-64
2022/05/06 10:15:13;;;;;;;;;;;;;;;20.43;46.21;102007.88;5103889;27;5663;-63
2022/05/06 10:17:59;;;;;;;;;;;;;;;20.46;46.17;102003.00;5099470;27;4527;-63
2022/05/06 10:20:35;;;;;;;;;;;;;;;20.46;46.17;102006.63;5116959;27;4666;-64
2022/05/06 10:23:07;;;;;;;;;;;;;;;20.45;46.14;101996.47;5117771;27;5277;-63
2022/05/06 10:25:40;;;;;;;;;;;;;;;20.47;46.17;101990.13;5116627;27;4225;-64
2022/05/06 10:34:08;;;;;;;;;;;;;;;20.49;46.14;101996.00;5114918;27;4406;-64
2022/05/06 10:36:43;;;;;;;;;;;;;;;20.48;45.98;101992.38;5115835;28;4484;-64
2022/05/06 10:39:25;;;;;;;;;;;;;;;20.49;46.07;101991.00;5117096;27;4502;-64
2022/05/06 10:42:07;;;;;;;;;;;;;;;20.50;46.10;101994.63;5116843;27;4549;-64
2022/05/06 10:44:42;;;;;;;;;;;;;;;20.50;46.12;101989.63;5116445;27;4103;-64
2022/05/06 10:47:11;;;;;;;;;;;;;;;20.50;46.02;101989.63;5116674;27;5460;-64
2022/05/06 10:49:38;;;;;;;;;;;;;;;20.51;46.02;101987.50;5116881;28;4336;-64
2022/05/06 10:52:25;;;;;;;;;;;;;;;20.50;46.18;101981.00;5115202;28;4460;-65
2022/05/06 10:54:55;;;;;;;;;;;;;;;20.51;46.07;101979.63;5113533;27;4434;-64
2022/05/06 10:57:23;;;;;;;;;;;;;;;20.51;45.97;101973.84;5122620;27;5685;-64
2022/05/06 10:59:53;;;;;;;;;;;;;;;20.53;46.18;101981.13;5123019;27;4508;-64
2022/05/06 11:02:26;;;;;;;;;;;;;;;20.53;46.09;101972.50;5123328;27;4181;-64
2022/05/06 11:04:58;;;;;;;;;;;;;;;20.54;46.15;101971.84;5122217;27;4227;-64
2022/05/06 11:07:25;;;;;;;;;;;;;;;20.54;46.02;101968.22;5122071;27;3947;-64
2022/05/06 11:09:52;;;;;;;;;;;;;;;20.55;46.03;101961.88;5123496;27;4527;-64
2022/05/06 11:12:27;;;;;;;;;;;;;;;20.54;46.08;101957.47;5123177;27;5306;-63
2022/05/06 11:14:56;;;;;;;;;;;;;;;20.56;46.12;101954.75;5122930;27;5555;-64
2022/05/06 11:17:26;;;;;;;;;;;;;;;20.57;46.07;101944.00;5122972;27;4540;-63
2022/05/06 11:19:53;;;;;;;;;;;;;;;20.57;46.14;101955.50;5124003;27;4131;-64
2022/05/06 11:22:20;;;;;;;;;;;;;;;20.56;46.05;101948.22;5123119;27;4870;-64
2022/05/06 11:24:46;;;;;;;;;;;;;;;20.57;46.00;101952.63;5122712;27;4700;-64
2022/05/06 11:27:13;;;;;;;;;;;;;;;20.58;46.08;101948.38;5122810;27;4536;-64
2022/05/06 11:30:05;;;;;;;;;;;;;;;20.58;46.11;101952.00;5122510;27;4495;-64
2022/05/06 11:32:32;;;;;;;;;;;;;;;20.58;46.10;101945.50;5118452;27;5228;-64
2022/05/06 11:35:01;;;;;;;;;;;;;;;20.58;46.10;101948.38;5111376;27;4077;-63
2022/05/06 11:37:28;;;;;;;;;;;;;;;20.58;46.13;101940.50;5123461;27;5319;-64
2022/05/06 11:42:40;;;;;;;;;;;;;;;20.59;46.10;101941.25;5122995;27;5383;-63
2022/05/06 11:47:27;;;;;;;;;;;;;;;20.59;46.14;101944.13;5122994;27;4373;-63
2022/05/06 11:48:05;;;;;;;;;;;;;;;20.59;46.10;101938.38;5122263;27;5622;-64
2022/05/06 11:50:35;;;;;;;;;;;;;;;20.60;46.05;101939.88;5110736;27;4079;-64
2022/05/06 11:53:01;;;;;;;;;;;;;;;20.61;46.05;101929.84;5122882;27;4056;-63
2022/05/06 11:55:28;;;;;;;;;;;;;;;20.61;46.13;101929.84;5111627;27;4214;-64
2022/05/06 11:57:54;;;;;;;;;;;;;;;20.64;45.97;101928.63;5123492;27;5809;-64
2022/05/06 12:00:20;;;;;;;;;;;;;;;20.62;46.10;101937.13;5122232;27;4524;-65
2022/05/06 12:02:48;;;;;;;;;;;;;;;20.62;46.04;101931.38;5123462;27;4333;-64
2022/05/06 12:05:15;;;;;;;;;;;;;;;20.62;46.02;101932.13;5119605;27;6278;-63
2022/05/06 12:07:41;;;;;;;;;;;;;;;20.63;46.09;101927.09;5120022;27;3944;-63
2022/05/06 12:10:09;;;;;;;;;;;;;;;20.62;46.06;101925.63;5119317;27;4478;-64
2022/05/06 12:12:54;;;;;;;;;;;;;;;20.63;46.18;101927.09;5120201;27;4420;-64
2022/05/06 12:15:27;;;;;;;;;;;;;;;20.62;46.17;101922.75;5118995;27;4141;-64
2022/05/06 12:18:12;;;;;;;;;;;;;;;20.62;46.09;101920.59;5119019;27;4126;-64
2022/05/06 12:20:40;;;;;;;;;;;;;;;20.63;46.04;101916.34;5119188;27;4151;-64
2022/05/06 12:23:07;;;;;;;;;;;;;;;20.63;46.05;101918.47;5119261;27;4357;-64
2022/05/06 12:25:39;;;;;;;;;;;;;;;20.62;46.06;101914.84;5119415;27;4432;-64
2022/05/06 12:28:05;;;;;;;;;;;;;;;20.64;46.07;101922.88;5118164;27;4446;-64
2022/05/06 12:30:31;;;;;;;;;;;;;;;20.63;46.12;101904.84;5119921;27;4010;-63
2022/05/06 12:33:04;;;;;;;;;;;;;;;20.64;46.06;101908.47;5118947;27;5500;-64
2022/05/06 12:35:30;;;;;;;;;;;;;;;20.65;46.04;101901.34;5118302;27;4348;-63
2022/05/06 12:37:58;;;;;;;;;;;;;;;20.67;46.12;101901.47;5120210;27;4196;-63
2022/05/06 12:40:31;;;;;;;;;;;;;;;20.68;46.02;101891.44;5117174;27;5435;-63
2022/05/06 12:43:04;;;;;;;;;;;;;;;20.70;45.98;101897.31;5118616;27;4423;-63
2022/05/06 12:45:30;;;;;;;;;;;;;;;20.70;45.92;101894.44;5115021;27;5744;-63
2022/05/06 12:50:42;;;;;;;;;;;;;;;20.71;45.94;101893.09;5117173;27;5471;-65
2022/05/06 12:53:08;;;;;;;;;;;;;;;20.71;45.67;101902.47;5115197;27;4194;-65
2022/05/06 12:55:35;;;;;;;;;;;;;;;20.72;45.80;101906.09;5118138;27;5436;-66
2022/05/06 12:58:01;;;;;;;;;;;;;;;20.72;45.93;101897.44;5116892;27;5198;-64
2022/05/06 13:00:27;;;;;;;;;;;;;;;20.71;45.88;101893.81;5109144;27;4147;-66
2022/05/06 13:02:54;;;;;;;;;;;;;;;20.74;45.73;101903.34;5111776;27;3942;-63
2022/05/06 13:05:20;;;;;;;;;;;;;;;20.73;45.94;101898.19;5114940;27;4150;-66
2022/05/06 13:07:47;;;;;;;;;;;;;;;20.73;46.11;101901.84;5117301;27;4900;-62
2022/05/06 13:10:13;;;;;;;;;;;;;;;20.71;46.01;101895.97;5116911;27;4178;-64
2022/05/06 13:12:40;;;;;;;;;;;;;;;20.68;46.01;101897.19;5117527;27;4406;-63
2022/05/06 13:15:06;;;;;;;;;;;;;;;20.67;46.17;101901.47;5117893;27;5247;-65
2022/05/06 13:17:33;;;;;;;;;;;;;;;20.67;46.08;101904.34;5118278;27;4224;-63
2022/05/06 13:19:59;;;;;;;;;;;;;;;20.68;45.97;101900.06;5119189;27;4223;-63
2022/05/06 13:22:27;;;;;;;;;;;;;;;20.71;45.81;101887.31;5118622;27;4129;-64
2022/05/06 13:24:53;;;;;;;;;;;;;;;20.72;45.75;101894.56;5116805;27;4243;-64
2022/05/06 13:27:19;;;;;;;;;;;;;;;20.73;46.04;101890.34;5115504;27;4182;-64
2022/05/06 13:29:46;;;;;;;;;;;;;;;20.71;46.25;101887.31;5116553;27;4160;-64
2022/05/06 13:32:12;;;;;;;;;;;;;;;20.71;46.29;101881.56;5115893;27;5372;-65
2022/05/06 13:34:39;;;;;;;;;;;;;;;20.71;46.29;101884.44;5116118;27;4220;-65
2022/05/06 13:37:05;;;;;;;;;;;;;;;20.71;46.25;101884.44;5117370;27;4155;-64
2022/05/06 13:39:32;;;;;;;;;;;;;;;20.71;46.39;101881.56;5116743;27;4345;-65
2022/05/06 13:41:58;;;;;;;;;;;;;;;20.71;46.18;101876.56;5117026;27;5259;-64